• Join FlightAware (Why Join?)
  • Login
  • US Flag 
09:57AM EST


 

Airport Tracker/Info


-or-


 

Live Flight TrackerFlight Track Log ✈ EJM585 ✈ 01-May-2013 ✈ KIAD - KSAV

Flight Track Log - Related Links

Times and Time Zones

All times are in EDT time to prevent confusion due to time zone crossing. See the EJM585 flight status page for this flight to view local times or setup timezone preferences in your user account.

Time Position Orientation Groundspeed Altitude Reporting Facility
EDT Latitude Longitude Course Direction KTS MPH feet Rate Location/Type
05:17PM 38.9000 -77.4333 218° Southwest 200 230 2,100  Level Potomac TRACON
05:19PM 38.7711 -77.4928 200° South 236 272 9,100 3,240 Climbing Washington Center
05:20PM 38.7053 -77.5683 222° Southwest 274 315 12,300 3,120 Climbing Washington Center
05:21PM 38.6069 -77.5869 188° South 326 375 15,400 2,940 Climbing Washington Center
05:22PM 38.4967 -77.5839 179° South 353 406 18,300 2,640 Climbing Washington Center
05:23PM 38.3725 -77.5942 218° Southwest  Level FlightAware Approximate
05:23PM 38.3833 -77.6286 197° South 392 451 20,800  Level Washington Center
05:24PM 38.2878 -77.7317 220° Southwest 429 494 23,400 2,400 Climbing Washington Center
05:25PM 38.2017 -77.8642 230° Southwest 447 514 25,600 1,980 Climbing Washington Center
05:26PM 38.1017 -77.9744 221° Southwest 468 539 27,500 1,980 Climbing Washington Center
05:27PM 37.9953 -78.0792 218° Southwest 486 559 29,500 2,220 Climbing Washington Center
05:28PM 37.8781 -78.2017 220° Southwest 501 577 31,900 2,400 Climbing Washington Center
05:29PM 37.7669 -78.3108 218° Southwest 501 577 34,400 1,980 Climbing Washington Center
05:30PM 37.6603 -78.4144 218° Southwest 506 582 36,000 360 Climbing Washington Center
05:31PM 37.5578 -78.5181 219° Southwest 496 571 35,200 -780 Descending Washington Center
05:32PM 37.4617 -78.6111 218° Southwest 490 564 34,500 -660 Descending Washington Center
05:33PM 37.3567 -78.7142 218° Southwest 490 564 34,000 -300 Descending Washington Center
05:34PM 37.2497 -78.8194 218° Southwest 490 564 34,000  Level Washington Center
05:35PM 37.1425 -78.9244 218° Southwest 490 564 34,000  Level Washington Center
05:36PM 37.0225 -79.0389 217° Southwest 490 564 34,000  Level Washington Center
05:37PM 36.9172 -79.1406 218° Southwest 495 570 34,000  Level Washington Center
05:38PM 36.8097 -79.2447 218° Southwest 495 570 34,000  Level Washington Center
05:41PM 36.5858 -79.4575 217° Southwest 472 543 34,000  Level Atlanta Center
05:42PM 36.4833 -79.5589 219° Southwest 472 543 34,000  Level Atlanta Center
05:43PM 36.3744 -79.6603 217° Southwest 472 543 34,000  Level Atlanta Center
05:44PM 36.2633 -79.7667 218° Southwest 472 543 34,000  Level Atlanta Center
05:45PM 36.1583 -79.8650 217° Southwest 472 543 34,000  Level Atlanta Center
05:46PM 36.0444 -79.9478 210° Southwest 472 543 34,000  Level Atlanta Center
05:47PM 35.9186 -79.9928 196° South 472 543 34,000  Level Atlanta Center
05:48PM 35.7989 -80.0294 194° South 478 550 34,000  Level Atlanta Center
05:49PM 35.6567 -80.0822 197° South 485 558 34,000  Level Atlanta Center
05:50PM 35.5306 -80.1217 194° South 485 558 34,000  Level Atlanta Center
05:51PM 35.4025 -80.1633 195° South 485 558 34,000  Level Atlanta Center
05:52PM 35.2911 -80.2042 197° South 480 552 34,000  Level Atlanta Center
05:53PM 35.1611 -80.2458 195° South 475 547 34,000  Level Atlanta Center
05:55PM 34.8539 -80.3475 195° South 475 547 34,000  Level Jacksonville Center
05:56PM 34.7150 -80.3947 196° South 475 547 34,000 -240 Level Jacksonville Center
05:57PM 34.5886 -80.4336 194° South 475 547 33,600 -960 Descending Jacksonville Center
05:58PM 34.4600 -80.4775 196° South 475 547 32,100 -1,500 Descending Jacksonville Center
05:59PM 34.3314 -80.5164 194° South 475 547 30,600 -1,080 Descending Jacksonville Center
06:00PM 34.1989 -80.5603 195° South 481 554 30,000 -300 Descending Jacksonville Center
06:01PM 34.0703 -80.6011 195° South 486 559 30,000  Level Jacksonville Center
06:02PM 33.9375 -80.6447 195° South 491 565 30,000  Level Jacksonville Center
06:03PM 33.8089 -80.6856 195° South 486 559 30,000  Level Jacksonville Center
06:04PM 33.6758 -80.7264 194° South 486 559 30,000  Level Jacksonville Center
06:05PM 33.5453 -80.7694 195° South 491 565 30,000 -840 Level Jacksonville Center
06:06PM 33.4164 -80.8072 194° South 491 565 28,400 -1,800 Descending Jacksonville Center
06:07PM 33.2836 -80.8478 194° South 491 565 26,400 -2,040 Descending Jacksonville Center
06:08PM 33.1611 -80.8903 196° South 485 558 24,400 -2,460 Descending Jacksonville Center
06:09PM 33.0406 -80.9275 195° South 474 545 21,500 -3,060 Descending Jacksonville Center
06:10PM 32.9242 -80.9622 194° South 448 516 18,300 -3,300 Descending Jacksonville Center
06:11PM 32.8142 -80.9967 195° South 428 493 15,000 -3,420 Descending Jacksonville Center
06:12PM 32.7122 -81.0261 194° South 407 468 11,500 -2,820 Descending Jacksonville Center
06:13PM 32.6311 -81.0525 195° South 348 400 9,400 -1,740 Descending Jacksonville Center
06:14PM 32.5547 -81.1008 208° Southwest 289 333 8,100 -1,440 Descending Jacksonville Center
06:15PM 32.4886 -81.1564 215° Southwest 294 338 6,600 -1,200 Descending Jacksonville Center
06:16PM 32.4308 -81.2042 215° Southwest 294 338 5,700 -960 Descending Jacksonville Center
06:17PM 32.3689 -81.2594 217° Southwest 280 322 4,700 -1,080 Descending Jacksonville Center
06:18PM 32.2942 -81.2903 199° South 268 308 3,600 -1,080 Descending Jacksonville Center
06:19PM 32.2214 -81.3014 187° South 263 303 2,600 -900 Descending Jacksonville Center
06:20PM 32.1525 -81.3075 184° South 262 302 1,800 -840 Descending Jacksonville Center
06:22PM 32.1167 -81.2000 North  Level FlightAware Approximate
06:29PM 32.1276 -81.2021 North  Level Estimated
06:30PM 32.1276 -81.2021 North  Level Estimated
06:31PM 32.1276 -81.2021 North  Level Estimated
06:32PM 32.1276 -81.2021 North  Level Estimated
06:33PM 32.1276 -81.2021 North  Level Estimated
06:34PM 32.1276 -81.2021 North  Level Estimated